Time;durP1;ratioP1;P1;durP2;ratioP2;P2;SDS_P1;SDS_P2;PMS_P1;PMS_P2;Temp;Humidity;BMP_temperature;BMP_pressure;BME280_temperature;BME280_humidity;BME280_pressure;Samples;Min_cycle;Max_cycle;Signal;HPM_P1;HPM_P2
2022/04/05 00:00:11;;;;;;;30.13;17.17;;;;;;;9.10;100.00;100388.44;5076268;28;20032;-55
2022/04/05 00:02:36;;;;;;;32.25;18.13;;;;;;;9.02;100.00;100387.19;5081623;28;20109;-56
2022/04/05 00:05:01;;;;;;;31.27;18.02;;;;;;;9.03;100.00;100397.13;5072801;28;20382;-55
2022/04/05 00:07:26;;;;;;;29.30;17.92;;;;;;;9.07;100.00;100402.84;5084508;28;20035;-56
2022/04/05 00:09:52;;;;;;;29.17;17.08;;;;;;;9.10;100.00;100400.28;5072289;28;20020;-53
2022/04/05 00:12:20;;;;;;;26.80;16.73;;;;;;;9.04;100.00;100396.81;5080966;28;20043;-55
2022/04/05 00:14:48;;;;;;;27.95;17.48;;;;;;;9.11;100.00;100395.59;5076517;28;20028;-53
2022/04/05 00:17:14;;;;;;;27.35;16.70;;;;;;;9.12;100.00;100395.28;5076442;28;20028;-53
2022/04/05 00:19:39;;;;;;;29.77;18.35;;;;;;;8.98;100.00;100400.78;5081134;28;20041;-52
2022/04/05 00:22:05;;;;;;;27.25;16.90;;;;;;;9.01;100.00;100407.63;5075336;28;20072;-54
2022/04/05 00:24:30;;;;;;;31.33;18.40;;;;;;;9.00;100.00;100400.47;5082203;28;20036;-55
2022/04/05 00:26:56;;;;;;;30.98;18.95;;;;;;;9.01;100.00;100407.63;5073152;28;20044;-54
2022/04/05 00:29:22;;;;;;;26.23;15.90;;;;;;;9.05;100.00;100415.00;5083725;28;20469;-52
2022/04/05 00:31:48;;;;;;;26.10;15.60;;;;;;;9.06;100.00;100410.31;5072420;28;20027;-53
2022/04/05 00:34:13;;;;;;;25.08;14.27;;;;;;;8.99;100.00;100413.47;5080572;28;20032;-54
2022/04/05 00:36:39;;;;;;;27.65;16.77;;;;;;;9.01;100.00;100414.00;5076746;28;20474;-52
2022/04/05 00:39:04;;;;;;;28.52;16.33;;;;;;;8.99;100.00;100412.63;5077348;28;20024;-53
2022/04/05 00:41:29;;;;;;;24.58;15.32;;;;;;;8.89;100.00;100413.66;5083730;28;20024;-53
2022/04/05 00:43:54;;;;;;;28.58;17.92;;;;;;;8.89;100.00;100416.44;5089249;28;20020;-52
2022/04/05 00:46:20;;;;;;;28.70;17.13;;;;;;;8.83;100.00;100412.94;5076652;28;20550;-53
2022/04/05 00:48:55;;;;;;;26.77;16.88;;;;;;;8.83;100.00;100417.66;5082336;28;20039;-53
2022/04/05 00:51:23;;;;;;;29.40;17.95;;;;;;;8.81;100.00;100417.94;5083001;28;20118;-54
2022/04/05 00:53:51;;;;;;;29.40;17.15;;;;;;;8.81;100.00;100425.41;5077514;28;20020;-54
2022/04/05 00:56:17;;;;;;;30.88;18.08;;;;;;;8.82;100.00;100416.00;5087681;28;20362;-52
2022/04/05 00:58:46;;;;;;;30.52;18.20;;;;;;;8.78;100.00;100413.06;5078927;28;20032;-55
2022/04/05 01:01:16;;;;;;;26.92;16.17;;;;;;;8.85;100.00;100418.97;5079227;28;20028;-53
2022/04/05 01:03:47;;;;;;;27.98;16.92;;;;;;;8.82;100.00;100422.34;5083981;28;20024;-52
2022/04/05 01:06:15;;;;;;;27.25;16.88;;;;;;;8.81;100.00;100425.41;5078862;28;20399;-53
2022/04/05 01:08:41;;;;;;;27.95;17.17;;;;;;;8.84;100.00;100419.25;5084126;28;20035;-53
2022/04/05 01:11:06;;;;;;;30.42;18.02;;;;;;;8.83;100.00;100421.22;5075579;28;20119;-54
2022/04/05 01:13:32;;;;;;;28.15;17.52;;;;;;;8.89;100.00;100427.47;5083728;28;20104;-55
2022/04/05 01:15:57;;;;;;;29.23;17.80;;;;;;;8.86;100.00;100425.31;5095527;28;20028;-53
2022/04/05 01:18:22;;;;;;;28.13;17.48;;;;;;;8.90;100.00;100418.88;5087704;28;20111;-54
2022/04/05 01:20:49;;;;;;;27.48;16.08;;;;;;;8.87;100.00;100422.25;5078199;28;20029;-54
2022/04/05 01:23:20;;;;;;;28.42;18.05;;;;;;;8.81;100.00;100422.66;5080267;28;20032;-53
2022/04/05 01:25:46;;;;;;;30.67;18.17;;;;;;;8.79;100.00;100425.69;5064198;28;20059;-52
2022/04/05 01:28:11;;;;;;;26.92;17.63;;;;;;;8.84;100.00;100425.63;5078188;28;20068;-52
2022/04/05 01:30:36;;;;;;;28.52;18.35;;;;;;;8.83;100.00;100426.72;5083956;28;20480;-54
2022/04/05 01:33:01;;;;;;;27.60;18.23;;;;;;;8.82;100.00;100429.81;5076097;28;20028;-52
2022/04/05 01:35:27;;;;;;;24.55;16.67;;;;;;;8.83;100.00;100435.00;5086796;28;20056;-54
2022/04/05 01:37:52;;;;;;;28.05;18.48;;;;;;;8.84;100.00;100425.63;5075123;28;20029;-54
2022/04/05 01:40:18;;;;;;;28.33;18.52;;;;;;;8.89;100.00;100428.25;5084034;28;20039;-53
2022/04/05 01:42:43;;;;;;;28.42;18.45;;;;;;;8.88;100.00;100436.84;5078082;28;20024;-54
2022/04/05 01:45:08;;;;;;;29.25;18.55;;;;;;;8.83;100.00;100429.50;5078828;28;20025;-51
2022/04/05 01:47:34;;;;;;;29.60;19.55;;;;;;;8.79;100.00;100431.22;5094536;28;20084;-53
2022/04/05 01:49:59;;;;;;;28.83;20.38;;;;;;;8.79;100.00;100433.97;5091547;28;20103;-53
2022/04/05 01:52:25;;;;;;;28.90;18.65;;;;;;;8.77;100.00;100441.75;5086027;28;20094;-54
2022/04/05 01:54:50;;;;;;;28.00;19.08;;;;;;;8.84;100.00;100431.13;5086983;28;20024;-54
2022/04/05 01:57:15;;;;;;;28.25;18.38;;;;;;;8.85;100.00;100443.81;5076317;28;20036;-54
2022/04/05 01:59:41;;;;;;;27.63;18.05;;;;;;;8.80;100.00;100432.03;5082043;28;20036;-52
2022/04/05 02:02:08;;;;;;;26.27;16.90;;;;;;;8.80;100.00;100438.38;5084809;28;20047;-54
2022/04/05 02:04:34;;;;;;;27.23;17.38;;;;;;;8.79;100.00;100435.91;5085985;28;20488;-54
2022/04/05 02:06:59;;;;;;;28.60;18.85;;;;;;;8.71;100.00;100429.16;5085544;28;20047;-55
2022/04/05 02:09:25;;;;;;;29.60;18.58;;;;;;;8.72;100.00;100437.16;5091106;28;20016;-55
2022/04/05 02:11:50;;;;;;;29.35;20.40;;;;;;;8.66;100.00;100443.06;5089969;28;20380;-54
2022/04/05 02:14:16;;;;;;;27.58;19.30;;;;;;;8.62;100.00;100439.25;5093695;28;20036;-55
2022/04/05 02:16:42;;;;;;;26.85;18.30;;;;;;;8.65;100.00;100433.94;5086302;28;20031;-55
2022/04/05 02:19:09;;;;;;;28.15;19.25;;;;;;;8.66;100.00;100437.53;5074153;28;20067;-54
2022/04/05 02:21:35;;;;;;;27.25;18.75;;;;;;;8.73;100.00;100438.78;5082184;28;20387;-51
2022/04/05 02:24:01;;;;;;;30.33;19.98;;;;;;;8.66;100.00;100429.25;5078895;28;20028;-51
2022/04/05 02:26:26;;;;;;;29.13;19.30;;;;;;;8.71;100.00;100443.78;5078360;28;20031;-50
2022/04/05 02:28:51;;;;;;;29.23;18.75;;;;;;;8.76;100.00;100448.38;5081592;28;20032;-49
2022/04/05 02:31:17;;;;;;;29.60;19.75;;;;;;;8.65;100.00;100444.16;5081354;28;20082;-53
2022/04/05 02:33:45;;;;;;;31.65;20.73;;;;;;;8.64;100.00;100445.28;5089693;28;20469;-53
2022/04/05 02:36:10;;;;;;;29.35;19.92;;;;;;;8.66;100.00;100445.81;5094023;28;20063;-51
2022/04/05 02:38:36;;;;;;;30.58;19.38;;;;;;;8.67;100.00;100447.44;5087170;28;20052;-53
2022/04/05 02:41:05;;;;;;;29.23;20.27;;;;;;;8.65;100.00;100436.69;5055956;28;20346;-53
2022/04/05 02:43:31;;;;;;;29.67;19.67;;;;;;;8.66;100.00;100438.34;5081853;28;20039;-54
2022/04/05 02:45:56;;;;;;;25.63;17.23;;;;;;;8.70;100.00;100441.31;5079335;28;20115;-52
2022/04/05 02:48:22;;;;;;;32.03;21.30;;;;;;;8.66;100.00;100443.06;5082126;28;20100;-53
2022/04/05 02:50:48;;;;;;;27.98;18.52;;;;;;;8.72;100.00;100437.16;5082826;28;20020;-54
2022/04/05 02:53:13;;;;;;;29.83;19.15;;;;;;;8.70;100.00;100441.31;5076124;28;20480;-54
2022/04/05 02:55:38;;;;;;;26.75;18.38;;;;;;;8.73;100.00;100441.53;5089492;28;20032;-54
2022/04/05 02:58:04;;;;;;;27.08;18.42;;;;;;;8.69;100.00;100440.50;5093454;28;20500;-55
2022/04/05 03:00:29;;;;;;;26.90;18.05;;;;;;;8.68;100.00;100436.09;5081666;28;20101;-51
2022/04/05 03:02:55;;;;;;;26.55;17.67;;;;;;;8.67;100.00;100434.47;5073604;28;20020;-53
2022/04/05 03:05:22;;;;;;;27.15;17.83;;;;;;;8.68;100.00;100435.31;5080365;28;20507;-54
2022/04/05 03:07:47;;;;;;;28.25;17.40;;;;;;;8.67;100.00;100428.94;5074035;28;20048;-53
2022/04/05 03:10:12;;;;;;;25.35;16.83;;;;;;;8.63;100.00;100436.22;5080359;28;20048;-54
2022/04/05 03:12:38;;;;;;;26.38;17.20;;;;;;;8.67;100.00;100439.97;5081503;28;20035;-53
2022/04/05 03:15:06;;;;;;;27.83;16.98;;;;;;;8.63;100.00;100436.22;5091933;28;20428;-56
2022/04/05 03:17:32;;;;;;;27.33;17.05;;;;;;;8.65;100.00;100439.47;5080149;28;20028;-54
2022/04/05 03:19:59;;;;;;;28.08;18.05;;;;;;;8.66;100.00;100441.09;5073711;28;20035;-53
2022/04/05 03:22:24;;;;;;;28.23;17.58;;;;;;;8.64;100.00;100445.28;5083550;28;20469;-53
2022/04/05 03:24:49;;;;;;;26.90;16.10;;;;;;;8.74;100.00;100440.41;5074601;28;20028;-54
2022/04/05 03:27:15;;;;;;;27.90;17.95;;;;;;;8.67;100.00;100433.66;5077253;28;20024;-51
2022/04/05 03:29:40;;;;;;;26.13;17.08;;;;;;;8.70;100.00;100438.56;5086127;28;20027;-54
2022/04/05 03:32:06;;;;;;;26.63;16.55;;;;;;;8.74;100.00;100443.16;5088582;28;20028;-53
2022/04/05 03:34:31;;;;;;;25.13;16.05;;;;;;;8.79;100.00;100430.41;5081095;28;20028;-52
2022/04/05 03:36:56;;;;;;;25.60;15.30;;;;;;;8.71;100.00;100440.19;5091563;28;20039;-51
2022/04/05 03:39:22;;;;;;;27.35;16.30;;;;;;;8.73;100.00;100443.47;5087202;28;20452;-52
2022/04/05 03:41:47;;;;;;;25.48;16.23;;;;;;;8.70;100.00;100430.28;5092853;28;20039;-50
2022/04/05 03:44:13;;;;;;;27.38;16.52;;;;;;;8.63;100.00;100430.69;5085918;28;20024;-52
2022/04/05 03:46:38;;;;;;;24.83;15.55;;;;;;;8.64;100.00;100434.25;5076312;28;20111;-51
2022/04/05 03:49:04;;;;;;;24.27;15.27;;;;;;;8.64;100.00;100431.50;5064138;28;20067;-52
2022/04/05 03:51:30;;;;;;;25.83;16.05;;;;;;;8.60;100.00;100424.97;5085159;28;20031;-53
2022/04/05 03:53:55;;;;;;;27.42;15.90;;;;;;;8.64;100.00;100435.09;5089209;28;20091;-52
2022/04/05 03:56:21;;;;;;;28.10;17.73;;;;;;;8.63;100.00;100425.19;5084434;28;20123;-52
2022/04/05 03:58:47;;;;;;;26.98;18.15;;;;;;;8.67;100.00;100434.47;5092072;28;20031;-52
2022/04/05 04:01:12;;;;;;;26.08;17.35;;;;;;;8.64;100.00;100426.81;5082982;28;20108;-52
2022/04/05 04:03:38;;;;;;;26.52;16.80;;;;;;;8.62;100.00;100426.31;5084920;28;20042;-51
2022/04/05 04:06:03;;;;;;;28.15;17.33;;;;;;;8.63;100.00;100429.88;5078638;28;20056;-53
2022/04/05 04:08:28;;;;;;;29.38;18.00;;;;;;;8.64;100.00;100434.25;5089111;28;20047;-50
2022/04/05 04:10:54;;;;;;;29.38;17.83;;;;;;;8.66;100.00;100430.06;5086834;28;20028;-54
2022/04/05 04:13:19;;;;;;;27.92;17.67;;;;;;;8.69;100.00;100425.91;5082070;28;20025;-54
2022/04/05 04:15:45;;;;;;;26.40;17.17;;;;;;;8.70;100.00;100425.59;5075647;28;20070;-54
2022/04/05 04:18:10;;;;;;;28.23;17.60;;;;;;;8.68;100.00;100422.31;5083489;28;20020;-54
2022/04/05 04:20:38;;;;;;;27.60;17.75;;;;;;;8.65;100.00;100428.44;5073465;28;20116;-52
2022/04/05 04:23:03;;;;;;;26.75;16.35;;;;;;;8.68;100.00;100427.84;5079628;28;20029;-51
2022/04/05 04:25:30;;;;;;;29.75;17.40;;;;;;;8.69;100.00;100429.47;5095645;28;20084;-53
2022/04/05 04:27:55;;;;;;;27.40;16.33;;;;;;;8.66;100.00;100421.00;5085914;28;20461;-53
2022/04/05 04:30:21;;;;;;;28.60;17.45;;;;;;;8.65;100.00;100422.09;5076725;28;20020;-55
2022/04/05 04:32:46;;;;;;;28.70;17.08;;;;;;;8.75;100.00;100427.44;5077088;28;20094;-55
2022/04/05 04:35:12;;;;;;;26.55;16.55;;;;;;;8.67;100.00;100428.94;5077288;28;20025;-53
2022/04/05 04:37:37;;;;;;;27.48;15.77;;;;;;;8.69;100.00;100423.97;5076594;28;20474;-55
2022/04/05 04:40:04;;;;;;;25.27;15.43;;;;;;;8.71;100.00;100421.72;5076467;28;20366;-55
2022/04/05 04:42:32;;;;;;;24.05;15.13;;;;;;;8.71;100.00;100421.72;5076555;28;20099;-53
2022/04/05 04:44:57;;;;;;;26.58;15.88;;;;;;;8.67;100.00;100426.19;5076723;28;20489;-53
2022/04/05 04:47:22;;;;;;;26.15;15.60;;;;;;;8.71;100.00;100418.97;5078722;28;20086;-54
2022/04/05 04:49:48;;;;;;;26.42;15.15;;;;;;;8.76;100.00;100434.59;5084671;28;20032;-53
2022/04/05 04:52:13;;;;;;;26.33;16.45;;;;;;;8.77;100.00;100427.97;5076430;28;20086;-53
2022/04/05 04:54:38;;;;;;;26.75;16.52;;;;;;;8.69;100.00;100423.97;5076423;28;20108;-53
2022/04/05 04:57:04;;;;;;;23.02;14.52;;;;;;;8.73;100.00;100432.44;5086607;28;20523;-54
2022/04/05 04:59:29;;;;;;;25.88;15.85;;;;;;;8.75;100.00;100432.97;5078425;28;20039;-52
2022/04/05 05:01:54;;;;;;;25.25;16.30;;;;;;;8.71;100.00;100429.16;5096886;28;20047;-54
2022/04/05 05:04:19;;;;;;;26.73;16.25;;;;;;;8.66;100.00;100427.31;5096362;28;20472;-53
2022/04/05 05:06:45;;;;;;;26.83;17.30;;;;;;;8.66;100.00;100430.06;5078746;28;20123;-54
2022/04/05 05:09:10;;;;;;;25.77;16.35;;;;;;;8.73;100.00;100441.53;5096666;28;20445;-54
2022/04/05 05:11:36;;;;;;;25.38;16.70;;;;;;;8.66;100.00;100435.59;5096515;28;20475;-56
2022/04/05 05:14:02;;;;;;;25.38;15.88;;;;;;;8.74;100.00;100437.63;5096409;28;20036;-53
2022/04/05 05:16:27;;;;;;;26.33;16.92;;;;;;;8.70;100.00;100438.56;5096490;28;20494;-51
2022/04/05 05:18:53;;;;;;;25.08;15.30;;;;;;;8.79;100.00;100442.25;5096535;28;20384;-52
2022/04/05 05:21:19;;;;;;;24.33;15.35;;;;;;;8.79;100.00;100444.19;5096447;28;20020;-51
2022/04/05 05:23:45;;;;;;;23.85;14.65;;;;;;;8.78;100.00;100442.56;5097038;28;20064;-54
2022/04/05 05:26:10;;;;;;;25.98;16.10;;;;;;;8.69;100.00;100442.47;5096041;28;20110;-52
2022/04/05 05:28:35;;;;;;;26.63;16.92;;;;;;;8.76;100.00;100445.63;5077442;28;20028;-54
2022/04/05 05:31:01;;;;;;;27.63;16.58;;;;;;;8.70;100.00;100449.59;5095468;28;20032;-53
2022/04/05 05:33:26;;;;;;;27.05;17.05;;;;;;;8.71;100.00;100443.78;5096306;28;20035;-54
2022/04/05 05:35:51;;;;;;;28.02;17.58;;;;;;;8.75;100.00;100435.72;5094538;28;20036;-53
2022/04/05 05:38:16;;;;;;;30.23;16.75;;;;;;;8.69;100.00;100436.94;5096132;28;20032;-57
2022/04/05 05:40:42;;;;;;;25.15;16.42;;;;;;;8.69;100.00;100448.78;5095463;28;20032;-51
2022/04/05 05:43:07;;;;;;;26.05;16.80;;;;;;;8.70;100.00;100458.69;5095863;28;20032;-52
2022/04/05 05:45:35;;;;;;;26.25;17.05;;;;;;;8.72;100.00;100450.94;5095285;28;20028;-53
2022/04/05 05:48:02;;;;;;;26.60;15.85;;;;;;;8.76;100.00;100451.16;5095396;28;20115;-53
2022/04/05 05:50:27;;;;;;;26.65;15.10;;;;;;;8.71;100.00;100449.31;5095546;28;20464;-54
2022/04/05 05:52:53;;;;;;;26.13;15.30;;;;;;;8.79;100.00;100463.50;5094895;28;20085;-53
2022/04/05 05:55:20;;;;;;;26.02;15.15;;;;;;;8.75;100.00;100457.78;5095510;28;20051;-53
2022/04/05 05:57:46;;;;;;;25.75;15.23;;;;;;;8.84;100.00;100460.63;5095170;28;20106;-54
2022/04/05 06:00:17;;;;;;;25.25;15.48;;;;;;;8.79;100.00;100466.25;5095440;28;20181;-53
2022/04/05 06:02:44;;;;;;;25.77;14.82;;;;;;;8.80;100.00;100463.19;5095834;28;20028;-54
2022/04/05 06:05:10;;;;;;;25.90;15.90;;;;;;;8.78;100.00;100468.22;5095687;28;20051;-51
2022/04/05 06:07:35;;;;;;;24.42;15.77;;;;;;;8.74;100.00;100464.41;5095161;28;20536;-54
2022/04/05 06:10:05;;;;;;;27.42;15.55;;;;;;;8.75;100.00;100474.31;5094942;28;20115;-53
2022/04/05 06:12:30;;;;;;;25.98;15.75;;;;;;;8.72;100.00;100466.66;5089223;28;20181;-49
2022/04/05 06:14:55;;;;;;;26.25;16.30;;;;;;;8.74;100.00;100464.41;5094225;28;20504;-51
2022/04/05 06:17:21;;;;;;;25.60;15.85;;;;;;;8.76;100.00;100467.69;5095411;28;20028;-52
2022/04/05 06:19:47;;;;;;;26.88;16.83;;;;;;;8.73;100.00;100476.56;5082446;28;20037;-50
2022/04/05 06:22:12;;;;;;;27.85;16.90;;;;;;;8.77;100.00;100474.84;5090648;28;20469;-52
2022/04/05 06:24:38;;;;;;;26.83;15.88;;;;;;;8.82;100.00;100472.00;5078742;28;20104;-52
2022/04/05 06:27:04;;;;;;;27.23;16.50;;;;;;;8.79;100.00;100477.28;5084977;28;20234;-53
2022/04/05 06:29:29;;;;;;;30.42;17.00;;;;;;;8.80;100.00;100481.69;5074450;28;20027;-51
2022/04/05 06:31:54;;;;;;;27.77;16.80;;;;;;;8.84;100.00;100474.44;5082635;28;20050;-53
2022/04/05 06:34:20;;;;;;;27.58;17.08;;;;;;;8.87;100.00;100476.59;5092014;28;20368;-52
2022/04/05 06:36:46;;;;;;;26.88;16.25;;;;;;;8.91;100.00;100480.41;5074329;28;20062;-51
2022/04/05 06:39:13;;;;;;;26.85;15.75;;;;;;;8.90;100.00;100484.28;5071654;28;20070;-53
2022/04/05 06:41:39;;;;;;;27.25;15.57;;;;;;;8.92;100.00;100495.81;5079659;28;20036;-53
2022/04/05 06:44:04;;;;;;;25.13;15.48;;;;;;;8.99;100.00;100482.44;5084739;28;20082;-53
2022/04/05 06:46:30;;;;;;;25.67;15.48;;;;;;;8.97;100.00;100483.88;5058482;28;20673;-51
2022/04/05 06:48:55;;;;;;;27.70;15.27;;;;;;;8.94;100.00;100481.72;5084143;28;20036;-53
2022/04/05 06:51:21;;;;;;;24.50;13.43;;;;;;;9.01;100.00;100485.72;5072915;28;20070;-53
2022/04/05 06:53:46;;;;;;;26.50;15.35;;;;;;;9.01;100.00;100495.94;5083133;28;20558;-53
2022/04/05 06:56:12;;;;;;;26.40;15.40;;;;;;;8.98;100.00;100491.84;5073433;28;20040;-53
2022/04/05 06:58:38;;;;;;;25.00;14.82;;;;;;;9.05;100.00;100497.78;5076594;28;20618;-53
2022/04/05 07:01:03;;;;;;;26.27;14.98;;;;;;;8.98;100.00;100491.00;5089490;28;20036;-53
2022/04/05 07:03:28;;;;;;;27.33;15.48;;;;;;;9.01;100.00;100501.44;5077916;28;20036;-52
2022/04/05 07:05:55;;;;;;;25.42;14.65;;;;;;;9.02;100.00;100503.09;5072200;28;20388;-52
2022/04/05 07:08:20;;;;;;;25.70;14.93;;;;;;;9.05;100.00;100506.06;5061334;28;20044;-53
2022/04/05 07:10:45;;;;;;;24.77;14.85;;;;;;;9.07;100.00;100502.97;5090220;28;20435;-50
2022/04/05 07:13:11;;;;;;;24.35;14.65;;;;;;;9.05;100.00;100499.72;5092771;28;20073;-50
2022/04/05 07:15:36;;;;;;;28.08;15.43;;;;;;;9.06;100.00;100501.38;5092834;28;20028;-54
2022/04/05 07:18:01;;;;;;;24.95;12.85;;;;;;;9.05;100.00;100500.53;5092416;28;20020;-51
2022/04/05 07:20:28;;;;;;;23.17;14.68;;;;;;;9.12;100.00;100502.06;5083095;28;20540;-52
2022/04/05 07:22:53;;;;;;;25.23;14.48;;;;;;;9.13;100.00;100500.94;5084933;28;20032;-52
2022/04/05 07:25:20;;;;;;;25.38;15.05;;;;;;;9.19;100.00;100506.06;5084890;28;20452;-52
2022/04/05 07:27:47;;;;;;;25.85;13.98;;;;;;;9.21;100.00;100501.06;5092140;28;20403;-51
2022/04/05 07:30:13;;;;;;;25.35;14.50;;;;;;;9.18;100.00;100495.34;5091994;28;20387;-53
2022/04/05 07:32:40;;;;;;;25.30;14.48;;;;;;;9.30;100.00;100503.13;5091884;28;20036;-53
2022/04/05 07:35:07;;;;;;;28.95;14.82;;;;;;;9.29;100.00;100502.31;5091798;28;20111;-53
2022/04/05 07:37:33;;;;;;;23.27;13.43;;;;;;;9.38;100.00;100493.31;5092086;28;20077;-51
2022/04/05 07:39:58;;;;;;;24.13;13.82;;;;;;;9.44;100.00;100495.66;5089850;28;20028;-52
2022/04/05 07:42:24;;;;;;;26.70;14.02;;;;;;;9.47;100.00;100503.31;5091798;28;20050;-51
2022/04/05 07:44:49;;;;;;;25.45;13.32;;;;;;;9.54;100.00;100493.81;5091777;28;20063;-52
2022/04/05 07:47:15;;;;;;;24.15;13.18;;;;;;;9.50;100.00;100499.13;5091705;28;20020;-50
2022/04/05 07:49:40;;;;;;;23.42;14.00;;;;;;;9.54;100.00;100499.34;5091174;28;20664;-52
2022/04/05 07:52:05;;;;;;;24.77;13.27;;;;;;;9.48;100.00;100502.19;5091751;28;20047;-52
2022/04/05 07:54:31;;;;;;;23.27;13.18;;;;;;;9.51;100.00;100503.53;5072495;28;20060;-52
2022/04/05 07:56:57;;;;;;;24.00;12.48;;;;;;;9.47;100.00;100497.78;5078081;28;20132;-53
2022/04/05 07:59:23;;;;;;;23.60;13.02;;;;;;;9.46;100.00;100500.88;5090370;28;20028;-52
2022/04/05 08:01:49;;;;;;;22.55;13.63;;;;;;;9.41;100.00;100506.47;5073273;28;20093;-48
2022/04/05 08:04:14;;;;;;;26.90;15.35;;;;;;;9.44;100.00;100503.94;5074473;28;20052;-48
2022/04/05 08:06:39;;;;;;;23.95;13.77;;;;;;;9.45;100.00;100500.03;5091104;28;20051;-53
2022/04/05 08:09:05;;;;;;;22.02;12.68;;;;;;;9.51;100.00;100504.34;5083264;28;20032;-54
2022/04/05 08:11:30;;;;;;;23.67;12.90;;;;;;;9.54;100.00;100504.88;5070562;28;20036;-54
2022/04/05 08:13:56;;;;;;;22.75;13.60;;;;;;;9.55;100.00;100506.47;5075811;28;20079;-50
2022/04/05 08:16:22;;;;;;;22.90;12.98;;;;;;;9.58;99.99;100514.16;5074390;28;20032;-54
2022/04/05 08:18:47;;;;;;;24.08;12.57;;;;;;;9.52;100.00;100507.91;5075747;28;20044;-53
2022/04/05 08:21:12;;;;;;;22.73;13.02;;;;;;;9.55;99.88;100512.84;5077059;28;20505;-53
2022/04/05 08:23:38;;;;;;;21.83;13.23;;;;;;;9.54;100.00;100515.91;5089777;28;20039;-52
2022/04/05 08:26:04;;;;;;;21.98;12.40;;;;;;;9.54;99.59;100513.97;5073364;28;20028;-50
2022/04/05 08:28:29;;;;;;;23.10;12.85;;;;;;;9.52;99.47;100516.19;5084695;28;20024;-51
2022/04/05 08:30:54;;;;;;;22.45;12.57;;;;;;;9.55;99.55;100517.53;5088724;28;20021;-50
2022/04/05 08:33:20;;;;;;;21.70;12.52;;;;;;;9.54;100.00;100521.44;5075003;28;20078;-51
2022/04/05 08:35:45;;;;;;;22.63;12.40;;;;;;;9.62;98.92;100521.53;5083214;28;20097;-51
2022/04/05 08:38:11;;;;;;;22.50;12.60;;;;;;;9.69;98.76;100518.34;5084883;28;20020;-50
2022/04/05 08:40:36;;;;;;;23.15;12.07;;;;;;;9.68;99.30;100522.25;5083173;28;20032;-51
2022/04/05 08:43:01;;;;;;;20.45;11.25;;;;;;;9.81;98.10;100515.91;5081269;28;20396;-52
2022/04/05 08:45:27;;;;;;;20.67;11.77;;;;;;;9.90;97.82;100524.25;5086969;28;20032;-52
2022/04/05 08:47:56;;;;;;;21.63;12.30;;;;;;;9.96;97.25;100520.28;5090101;28;20059;-50
2022/04/05 08:50:24;;;;;;;21.55;12.65;;;;;;;10.05;97.89;100530.59;5082113;28;20051;-52
2022/04/05 08:52:51;;;;;;;21.92;11.85;;;;;;;10.15;97.09;100535.88;5089263;28;20476;-49
2022/04/05 08:55:17;;;;;;;21.23;12.00;;;;;;;10.16;96.63;100531.97;5076035;28;20024;-52
2022/04/05 08:57:43;;;;;;;22.42;12.35;;;;;;;10.09;97.49;100528.81;5070969;28;20090;-53
2022/04/05 09:00:10;;;;;;;21.92;12.57;;;;;;;10.03;97.76;100533.66;5070602;28;20476;-53
2022/04/05 09:02:36;;;;;;;23.38;13.00;;;;;;;10.05;98.55;100527.81;5089751;28;20038;-51
2022/04/05 09:05:03;;;;;;;21.25;13.00;;;;;;;10.02;98.48;100533.97;5088989;28;20052;-53
2022/04/05 09:07:31;;;;;;;20.92;12.45;;;;;;;9.91;98.88;100536.94;5083059;28;20066;-53
2022/04/05 09:10:14;;;;;;;22.45;12.55;;;;;;;10.01;98.61;100533.16;5088702;28;20097;-52
2022/04/05 09:12:40;;;;;;;19.73;11.80;;;;;;;10.04;99.16;100532.53;5085612;28;20036;-54
2022/04/05 09:15:20;;;;;;;20.35;12.40;;;;;;;10.07;99.63;100536.59;5090249;28;20042;-52
2022/04/05 09:17:48;;;;;;;22.77;12.95;;;;;;;10.17;99.78;100536.38;5086461;28;20059;-52
2022/04/05 09:20:16;;;;;;;21.95;12.60;;;;;;;10.24;99.40;100535.97;5078289;28;20082;-52
2022/04/05 09:22:42;;;;;;;22.27;12.60;;;;;;;10.24;98.77;100542.31;5086923;28;20032;-54
2022/04/05 09:25:12;;;;;;;20.30;11.30;;;;;;;10.25;98.13;100538.41;5092426;28;20024;-54
2022/04/05 09:27:47;;;;;;;20.52;11.98;;;;;;;10.20;96.92;100532.19;5092469;28;20032;-51
2022/04/05 09:30:17;;;;;;;19.70;11.30;;;;;;;10.25;97.22;100543.13;5068214;28;20031;-51
2022/04/05 09:32:47;;;;;;;23.13;13.43;;;;;;;10.01;99.06;100544.22;5071960;28;20044;-52
2022/04/05 09:35:14;;;;;;;20.15;11.80;;;;;;;9.98;98.94;100545.63;5071495;28;20063;-51
2022/04/05 09:37:40;;;;;;;20.80;13.05;;;;;;;9.91;99.22;100548.00;5084784;28;20031;-53
2022/04/05 09:40:34;;;;;;;22.67;12.23;;;;;;;9.87;99.93;100535.09;5083854;28;20040;-51
2022/04/05 09:43:04;;;;;;;22.15;12.60;;;;;;;9.90;99.68;100545.56;5091116;28;20043;-50
2022/04/05 09:45:58;;;;;;;20.88;11.80;;;;;;;10.07;99.30;100555.94;5084140;28;20032;-50
2022/04/05 09:48:27;;;;;;;21.50;11.63;;;;;;;10.05;99.52;100555.47;5089381;28;20104;-52
2022/04/05 09:51:01;;;;;;;20.55;11.95;;;;;;;10.18;99.04;100548.28;5086029;28;20513;-51
2022/04/05 09:53:27;;;;;;;21.38;11.88;;;;;;;10.28;99.20;100542.50;5076061;28;20028;-54
2022/04/05 09:56:04;;;;;;;22.65;12.10;;;;;;;10.46;98.22;100546.25;5088090;28;20032;-51
2022/04/05 09:58:30;;;;;;;21.50;12.05;;;;;;;10.56;98.22;100547.97;5083407;28;20442;-52
2022/04/05 10:01:07;;;;;;;21.60;11.60;;;;;;;10.62;97.37;100549.47;5092030;28;20115;-52
2022/04/05 10:03:35;;;;;;;20.98;12.05;;;;;;;10.53;97.53;100551.34;5076372;28;20161;-52
2022/04/05 10:06:02;;;;;;;21.45;11.50;;;;;;;10.50;96.67;100551.97;5092214;28;20066;-51
2022/04/05 10:08:30;;;;;;;20.55;12.07;;;;;;;10.33;98.73;100547.09;5086370;28;20381;-49
2022/04/05 10:10:55;;;;;;;18.75;10.88;;;;;;;10.36;98.46;100552.00;5084157;28;20093;-52
2022/04/05 10:13:20;;;;;;;19.65;11.48;;;;;;;10.33;97.15;100547.91;5080308;28;20032;-51
2022/04/05 10:15:47;;;;;;;18.63;10.30;;;;;;;10.29;97.92;100566.28;5082970;28;20504;-55
2022/04/05 10:18:15;;;;;;;20.98;11.55;;;;;;;10.25;98.92;100556.94;5083764;28;20044;-51
2022/04/05 10:20:41;;;;;;;19.38;11.77;;;;;;;10.24;99.18;100558.91;5079037;28;20040;-50
2022/04/05 10:23:07;;;;;;;19.73;11.35;;;;;;;10.33;97.53;100558.16;5081517;28;20497;-53
2022/04/05 10:25:34;;;;;;;20.60;11.73;;;;;;;10.25;98.44;100556.94;5067291;28;20028;-51
2022/04/05 10:28:00;;;;;;;19.23;10.88;;;;;;;10.33;97.70;100558.16;5077034;28;20043;-52
2022/04/05 10:30:36;;;;;;;20.60;11.32;;;;;;;10.32;98.01;100557.34;5089817;28;20020;-53
2022/04/05 10:33:40;;;;;;;19.95;10.73;;;;;;;10.29;98.47;100555.22;5084305;28;20043;-52
2022/04/05 10:36:06;;;;;;;;;;;;;;;10.39;97.23;100563.28;5071294;28;20477;-58
2022/04/05 10:38:31;;;;;;;20.63;12.35;;;;;;;10.17;98.11;100563.22;5085644;28;19912;-53
2022/04/05 10:41:20;;;;;;;19.13;11.15;;;;;;;10.25;97.65;100560.50;5088690;28;20342;-55
2022/04/05 10:43:49;;;;;;;22.20;11.80;;;;;;;10.24;98.48;100560.84;5081945;28;20039;-54
2022/04/05 10:46:50;;;;;;;19.88;11.48;;;;;;;10.44;98.21;100554.88;5060258;28;20033;-55
2022/04/05 10:49:33;;;;;;;20.75;11.75;;;;;;;10.46;98.01;100557.31;5086521;28;20039;-54
2022/04/05 10:52:06;;;;;;;20.63;11.23;;;;;;;10.48;96.56;100548.72;5086317;28;20036;-54
2022/04/05 10:54:36;;;;;;;21.58;12.07;;;;;;;10.52;97.45;100558.03;5082616;28;20032;-56
2022/04/05 10:57:28;;;;;;;19.58;10.98;;;;;;;10.59;95.92;100547.31;5088580;28;20376;-55
2022/04/05 11:00:12;;;;;;;20.75;11.82;;;;;;;10.56;95.50;100548.78;5073300;28;20480;-56
2022/04/05 11:02:46;;;;;;;19.52;10.90;;;;;;;10.62;95.80;100546.72;5086079;28;20516;-55
2022/04/05 11:05:14;;;;;;;19.48;10.35;;;;;;;10.68;94.87;100552.94;5092432;28;20040;-55
2022/04/05 11:07:51;;;;;;;23.83;10.93;;;;;;;10.65;95.25;100559.09;5068700;28;20033;-52